Luis Lopez, New Mexico
Current Conditions -  °F | °C
As of 7:15 AM on Sunday 21 Dec 2014 (Local Time) from KONM Reporting Station
Clear Clear  
Wind Chill: 22°   Ceiling: Unl
Heat Index: 27°   Visibility: 10mi
Dew Point: 23°   Wind: 5mph
Humidity: 84%   Direction: 170°S
Pressure: 30.05"   Gusts: NA
Location:  33.8946°N, 106.565°W
Report Text: KONM 211415Z AUTO 17004KT 10SM CLR M03/M05 A3005 RMK AO2 T10281051
Loading
Personal Weather Stations






























Interactive Weather Map New forecast layout! Learn more

10-Day Weather Forecast

Advertisements
Track Severe Weather on mobile